<?xml version="1.0" encoding="UTF-8" standalone="no" ?>
<gpx xmlns="http://www.topografix.com/GPX/1/1" xmlns:xsi="http://www.w3.org/2001/XMLSchema-instance" xsi:schemaLocation="http://www.topografix.com/GPX/1/1 http://www.topografix.com/GPX/1/1/gpx.xsd" version="1.1" creator="VisuGPX - https://www.visugpx.com">
  <metadata>
    <name>Belley / Lac de Chailloux3</name>
    <desc><![CDATA[Ain - Bugey.
Boucle au départ de Belley.
Passage à Vieugey, Le Plâtre, Bognens, Bois des Cornes, Préfort, Lac de Chailloux, Les Baraques, Bilignin.]]></desc>
  </metadata>
  <trk>
    <name><![CDATA[14044096-Belley / Lac de Chailloux3]]></name>
    <extensions>
      <line xmlns="http://www.topografix.com/GPX/gpx_style/0/2">
        <color>0000FF</color>
        <width>4</width>
      </line>
    </extensions>
    <trkseg>
      <trkpt lat="45.75802" lon="5.68932">
        <ele>281</ele>
        <time>2022-03-02T20:57:48Z</time>
      </trkpt>
      <trkpt lat="45.75835" lon="5.68863">
        <ele>280</ele>
        <time>2022-03-02T20:58:02Z</time>
      </trkpt>
      <trkpt lat="45.75827" lon="5.68854">
        <ele>280</ele>
        <time>2022-03-02T20:58:04Z</time>
      </trkpt>
      <trkpt lat="45.75782" lon="5.68822">
        <ele>279</ele>
        <time>2022-03-02T20:58:16Z</time>
      </trkpt>
      <trkpt lat="45.7576" lon="5.68803">
        <ele>279</ele>
        <time>2022-03-02T20:58:22Z</time>
      </trkpt>
      <trkpt lat="45.75706" lon="5.68767">
        <ele>281</ele>
        <time>2022-03-02T20:58:36Z</time>
      </trkpt>
      <trkpt lat="45.75694" lon="5.68763">
        <ele>282</ele>
        <time>2022-03-02T20:58:39Z</time>
      </trkpt>
      <trkpt lat="45.75683" lon="5.68755">
        <ele>282</ele>
        <time>2022-03-02T20:58:41Z</time>
      </trkpt>
      <trkpt lat="45.75656" lon="5.68728">
        <ele>283</ele>
        <time>2022-03-02T20:58:49Z</time>
      </trkpt>
      <trkpt lat="45.75598" lon="5.68663">
        <ele>286</ele>
        <time>2022-03-02T20:59:06Z</time>
      </trkpt>
      <trkpt lat="45.75592" lon="5.6865">
        <ele>287</ele>
        <time>2022-03-02T20:59:09Z</time>
      </trkpt>
      <trkpt lat="45.75559" lon="5.6852">
        <ele>289</ele>
        <time>2022-03-02T20:59:31Z</time>
      </trkpt>
      <trkpt lat="45.75551" lon="5.68476">
        <ele>289</ele>
        <time>2022-03-02T20:59:39Z</time>
      </trkpt>
      <trkpt lat="45.75564" lon="5.6839">
        <ele>288</ele>
        <time>2022-03-02T20:59:53Z</time>
      </trkpt>
      <trkpt lat="45.75571" lon="5.68376">
        <ele>288</ele>
        <time>2022-03-02T20:59:56Z</time>
      </trkpt>
      <trkpt lat="45.75578" lon="5.68376">
        <ele>287</ele>
        <time>2022-03-02T20:59:58Z</time>
      </trkpt>
      <trkpt lat="45.75581" lon="5.68368">
        <ele>287</ele>
        <time>2022-03-02T20:59:59Z</time>
      </trkpt>
      <trkpt lat="45.75579" lon="5.6836">
        <ele>287</ele>
        <time>2022-03-02T21:00:00Z</time>
      </trkpt>
      <trkpt lat="45.75573" lon="5.68353">
        <ele>287</ele>
        <time>2022-03-02T21:00:02Z</time>
      </trkpt>
      <trkpt lat="45.75573" lon="5.68342">
        <ele>287</ele>
        <time>2022-03-02T21:00:04Z</time>
      </trkpt>
      <trkpt lat="45.75603" lon="5.68166">
        <ele>289</ele>
        <time>2022-03-02T21:00:34Z</time>
      </trkpt>
      <trkpt lat="45.7557" lon="5.68146">
        <ele>289</ele>
        <time>2022-03-02T21:00:42Z</time>
      </trkpt>
      <trkpt lat="45.75515" lon="5.68098">
        <ele>291</ele>
        <time>2022-03-02T21:00:57Z</time>
      </trkpt>
      <trkpt lat="45.75497" lon="5.68071">
        <ele>292</ele>
        <time>2022-03-02T21:01:03Z</time>
      </trkpt>
      <trkpt lat="45.75491" lon="5.68054">
        <ele>291</ele>
        <time>2022-03-02T21:01:06Z</time>
      </trkpt>
      <trkpt lat="45.7549" lon="5.68039">
        <ele>291</ele>
        <time>2022-03-02T21:01:09Z</time>
      </trkpt>
      <trkpt lat="45.75497" lon="5.68006">
        <ele>290</ele>
        <time>2022-03-02T21:01:14Z</time>
      </trkpt>
      <trkpt lat="45.75498" lon="5.67985">
        <ele>290</ele>
        <time>2022-03-02T21:01:18Z</time>
      </trkpt>
      <trkpt lat="45.75496" lon="5.67971">
        <ele>290</ele>
        <time>2022-03-02T21:01:20Z</time>
      </trkpt>
      <trkpt lat="45.75491" lon="5.67958">
        <ele>290</ele>
        <time>2022-03-02T21:01:22Z</time>
      </trkpt>
      <trkpt lat="45.75474" lon="5.6793">
        <ele>290</ele>
        <time>2022-03-02T21:01:28Z</time>
      </trkpt>
      <trkpt lat="45.75409" lon="5.67854">
        <ele>290</ele>
        <time>2022-03-02T21:01:48Z</time>
      </trkpt>
      <trkpt lat="45.75344" lon="5.67757">
        <ele>289</ele>
        <time>2022-03-02T21:02:10Z</time>
      </trkpt>
      <trkpt lat="45.75329" lon="5.67729">
        <ele>288</ele>
        <time>2022-03-02T21:02:16Z</time>
      </trkpt>
      <trkpt lat="45.75319" lon="5.67702">
        <ele>288</ele>
        <time>2022-03-02T21:02:21Z</time>
      </trkpt>
      <trkpt lat="45.75295" lon="5.67599">
        <ele>287</ele>
        <time>2022-03-02T21:02:38Z</time>
      </trkpt>
      <trkpt lat="45.75274" lon="5.67525">
        <ele>291</ele>
        <time>2022-03-02T21:02:51Z</time>
      </trkpt>
      <trkpt lat="45.75289" lon="5.67485">
        <ele>293</ele>
        <time>2022-03-02T21:02:59Z</time>
      </trkpt>
      <trkpt lat="45.75293" lon="5.67462">
        <ele>294</ele>
        <time>2022-03-02T21:03:03Z</time>
      </trkpt>
      <trkpt lat="45.75294" lon="5.6744">
        <ele>295</ele>
        <time>2022-03-02T21:03:06Z</time>
      </trkpt>
      <trkpt lat="45.75289" lon="5.67416">
        <ele>297</ele>
        <time>2022-03-02T21:03:10Z</time>
      </trkpt>
      <trkpt lat="45.7529" lon="5.6737">
        <ele>297</ele>
        <time>2022-03-02T21:03:18Z</time>
      </trkpt>
      <trkpt lat="45.75304" lon="5.67239">
        <ele>292</ele>
        <time>2022-03-02T21:03:39Z</time>
      </trkpt>
      <trkpt lat="45.75304" lon="5.67198">
        <ele>290</ele>
        <time>2022-03-02T21:03:46Z</time>
      </trkpt>
      <trkpt lat="45.75295" lon="5.67165">
        <ele>288</ele>
        <time>2022-03-02T21:03:52Z</time>
      </trkpt>
      <trkpt lat="45.75243" lon="5.67081">
        <ele>285</ele>
        <time>2022-03-02T21:04:10Z</time>
      </trkpt>
      <trkpt lat="45.75233" lon="5.6704">
        <ele>283</ele>
        <time>2022-03-02T21:04:17Z</time>
      </trkpt>
      <trkpt lat="45.75228" lon="5.66956">
        <ele>276</ele>
        <time>2022-03-02T21:04:31Z</time>
      </trkpt>
      <trkpt lat="45.75219" lon="5.66906">
        <ele>272</ele>
        <time>2022-03-02T21:04:39Z</time>
      </trkpt>
      <trkpt lat="45.75208" lon="5.66888">
        <ele>272</ele>
        <time>2022-03-02T21:04:43Z</time>
      </trkpt>
      <trkpt lat="45.75169" lon="5.6685">
        <ele>272</ele>
        <time>2022-03-02T21:04:54Z</time>
      </trkpt>
      <trkpt lat="45.75162" lon="5.6684">
        <ele>271</ele>
        <time>2022-03-02T21:04:57Z</time>
      </trkpt>
      <trkpt lat="45.75146" lon="5.66794">
        <ele>268</ele>
        <time>2022-03-02T21:05:05Z</time>
      </trkpt>
      <trkpt lat="45.7514" lon="5.66764">
        <ele>266</ele>
        <time>2022-03-02T21:05:10Z</time>
      </trkpt>
      <trkpt lat="45.75134" lon="5.66657">
        <ele>260</ele>
        <time>2022-03-02T21:05:28Z</time>
      </trkpt>
      <trkpt lat="45.7513" lon="5.66624">
        <ele>259</ele>
        <time>2022-03-02T21:05:33Z</time>
      </trkpt>
      <trkpt lat="45.75122" lon="5.66567">
        <ele>256</ele>
        <time>2022-03-02T21:05:42Z</time>
      </trkpt>
      <trkpt lat="45.7511" lon="5.66514">
        <ele>253</ele>
        <time>2022-03-02T21:05:52Z</time>
      </trkpt>
      <trkpt lat="45.75109" lon="5.66502">
        <ele>253</ele>
        <time>2022-03-02T21:05:54Z</time>
      </trkpt>
      <trkpt lat="45.75112" lon="5.66488">
        <ele>251</ele>
        <time>2022-03-02T21:05:56Z</time>
      </trkpt>
      <trkpt lat="45.75126" lon="5.66467">
        <ele>250</ele>
        <time>2022-03-02T21:06:01Z</time>
      </trkpt>
      <trkpt lat="45.75222" lon="5.66416">
        <ele>247</ele>
        <time>2022-03-02T21:06:25Z</time>
      </trkpt>
      <trkpt lat="45.75255" lon="5.66405">
        <ele>245</ele>
        <time>2022-03-02T21:06:32Z</time>
      </trkpt>
      <trkpt lat="45.75331" lon="5.66403">
        <ele>248</ele>
        <time>2022-03-02T21:06:50Z</time>
      </trkpt>
      <trkpt lat="45.75339" lon="5.66398">
        <ele>247</ele>
        <time>2022-03-02T21:06:52Z</time>
      </trkpt>
      <trkpt lat="45.75345" lon="5.6639">
        <ele>245</ele>
        <time>2022-03-02T21:06:54Z</time>
      </trkpt>
      <trkpt lat="45.75351" lon="5.66345">
        <ele>238</ele>
        <time>2022-03-02T21:07:02Z</time>
      </trkpt>
      <trkpt lat="45.75347" lon="5.66336">
        <ele>237</ele>
        <time>2022-03-02T21:07:03Z</time>
      </trkpt>
      <trkpt lat="45.75326" lon="5.66326">
        <ele>236</ele>
        <time>2022-03-02T21:07:09Z</time>
      </trkpt>
      <trkpt lat="45.75318" lon="5.66319">
        <ele>235</ele>
        <time>2022-03-02T21:07:11Z</time>
      </trkpt>
      <trkpt lat="45.75312" lon="5.66292">
        <ele>234</ele>
        <time>2022-03-02T21:07:15Z</time>
      </trkpt>
      <trkpt lat="45.75326" lon="5.66196">
        <ele>231</ele>
        <time>2022-03-02T21:07:31Z</time>
      </trkpt>
      <trkpt lat="45.75326" lon="5.66173">
        <ele>231</ele>
        <time>2022-03-02T21:07:35Z</time>
      </trkpt>
      <trkpt lat="45.7533" lon="5.66142">
        <ele>231</ele>
        <time>2022-03-02T21:07:40Z</time>
      </trkpt>
      <trkpt lat="45.75435" lon="5.66159">
        <ele>230</ele>
        <time>2022-03-02T21:08:05Z</time>
      </trkpt>
      <trkpt lat="45.75544" lon="5.66162">
        <ele>232</ele>
        <time>2022-03-02T21:08:30Z</time>
      </trkpt>
      <trkpt lat="45.75558" lon="5.66161">
        <ele>232</ele>
        <time>2022-03-02T21:08:34Z</time>
      </trkpt>
      <trkpt lat="45.75741" lon="5.66123">
        <ele>233</ele>
        <time>2022-03-02T21:09:17Z</time>
      </trkpt>
      <trkpt lat="45.7578" lon="5.66128">
        <ele>234</ele>
        <time>2022-03-02T21:09:26Z</time>
      </trkpt>
      <trkpt lat="45.7579" lon="5.66126">
        <ele>234</ele>
        <time>2022-03-02T21:09:28Z</time>
      </trkpt>
      <trkpt lat="45.75801" lon="5.6612">
        <ele>234</ele>
        <time>2022-03-02T21:09:31Z</time>
      </trkpt>
      <trkpt lat="45.75829" lon="5.66081">
        <ele>235</ele>
        <time>2022-03-02T21:09:40Z</time>
      </trkpt>
      <trkpt lat="45.75893" lon="5.66014">
        <ele>232</ele>
        <time>2022-03-02T21:09:59Z</time>
      </trkpt>
      <trkpt lat="45.75937" lon="5.65998">
        <ele>231</ele>
        <time>2022-03-02T21:10:09Z</time>
      </trkpt>
      <trkpt lat="45.7598" lon="5.65995">
        <ele>230</ele>
        <time>2022-03-02T21:10:19Z</time>
      </trkpt>
      <trkpt lat="45.75977" lon="5.65964">
        <ele>229</ele>
        <time>2022-03-02T21:10:24Z</time>
      </trkpt>
      <trkpt lat="45.75983" lon="5.65892">
        <ele>228</ele>
        <time>2022-03-02T21:10:36Z</time>
      </trkpt>
      <trkpt lat="45.75993" lon="5.65838">
        <ele>229</ele>
        <time>2022-03-02T21:10:45Z</time>
      </trkpt>
      <trkpt lat="45.75999" lon="5.65819">
        <ele>229</ele>
        <time>2022-03-02T21:10:49Z</time>
      </trkpt>
      <trkpt lat="45.76023" lon="5.65773">
        <ele>229</ele>
        <time>2022-03-02T21:10:58Z</time>
      </trkpt>
      <trkpt lat="45.76045" lon="5.65743">
        <ele>228</ele>
        <time>2022-03-02T21:11:05Z</time>
      </trkpt>
      <trkpt lat="45.7607" lon="5.6572">
        <ele>227</ele>
        <time>2022-03-02T21:11:12Z</time>
      </trkpt>
      <trkpt lat="45.76079" lon="5.65705">
        <ele>227</ele>
        <time>2022-03-02T21:11:15Z</time>
      </trkpt>
      <trkpt lat="45.76082" lon="5.65663">
        <ele>227</ele>
        <time>2022-03-02T21:11:22Z</time>
      </trkpt>
      <trkpt lat="45.76076" lon="5.65631">
        <ele>227</ele>
        <time>2022-03-02T21:11:28Z</time>
      </trkpt>
      <trkpt lat="45.76073" lon="5.65597">
        <ele>228</ele>
        <time>2022-03-02T21:11:33Z</time>
      </trkpt>
      <trkpt lat="45.76088" lon="5.65507">
        <ele>231</ele>
        <time>2022-03-02T21:11:48Z</time>
      </trkpt>
      <trkpt lat="45.76094" lon="5.65487">
        <ele>231</ele>
        <time>2022-03-02T21:11:52Z</time>
      </trkpt>
      <trkpt lat="45.76113" lon="5.65465">
        <ele>232</ele>
        <time>2022-03-02T21:11:58Z</time>
      </trkpt>
      <trkpt lat="45.76125" lon="5.65457">
        <ele>233</ele>
        <time>2022-03-02T21:12:01Z</time>
      </trkpt>
      <trkpt lat="45.76242" lon="5.65414">
        <ele>236</ele>
        <time>2022-03-02T21:12:29Z</time>
      </trkpt>
      <trkpt lat="45.76271" lon="5.65401">
        <ele>239</ele>
        <time>2022-03-02T21:12:36Z</time>
      </trkpt>
      <trkpt lat="45.76286" lon="5.6539">
        <ele>241</ele>
        <time>2022-03-02T21:12:40Z</time>
      </trkpt>
      <trkpt lat="45.76295" lon="5.6538">
        <ele>242</ele>
        <time>2022-03-02T21:12:43Z</time>
      </trkpt>
      <trkpt lat="45.76301" lon="5.65368">
        <ele>244</ele>
        <time>2022-03-02T21:12:45Z</time>
      </trkpt>
      <trkpt lat="45.76303" lon="5.65344">
        <ele>246</ele>
        <time>2022-03-02T21:12:49Z</time>
      </trkpt>
      <trkpt lat="45.763" lon="5.65331">
        <ele>248</ele>
        <time>2022-03-02T21:12:51Z</time>
      </trkpt>
      <trkpt lat="45.76218" lon="5.65235">
        <ele>259</ele>
        <time>2022-03-02T21:13:16Z</time>
      </trkpt>
      <trkpt lat="45.76197" lon="5.65205">
        <ele>261</ele>
        <time>2022-03-02T21:13:23Z</time>
      </trkpt>
      <trkpt lat="45.76188" lon="5.65187">
        <ele>262</ele>
        <time>2022-03-02T21:13:26Z</time>
      </trkpt>
      <trkpt lat="45.76184" lon="5.65171">
        <ele>263</ele>
        <time>2022-03-02T21:13:29Z</time>
      </trkpt>
      <trkpt lat="45.76189" lon="5.65094">
        <ele>269</ele>
        <time>2022-03-02T21:13:42Z</time>
      </trkpt>
      <trkpt lat="45.76206" lon="5.65055">
        <ele>274</ele>
        <time>2022-03-02T21:13:49Z</time>
      </trkpt>
      <trkpt lat="45.76211" lon="5.65035">
        <ele>276</ele>
        <time>2022-03-02T21:13:53Z</time>
      </trkpt>
      <trkpt lat="45.76211" lon="5.6502">
        <ele>277</ele>
        <time>2022-03-02T21:13:55Z</time>
      </trkpt>
      <trkpt lat="45.76202" lon="5.64964">
        <ele>282</ele>
        <time>2022-03-02T21:14:05Z</time>
      </trkpt>
      <trkpt lat="45.76203" lon="5.64943">
        <ele>284</ele>
        <time>2022-03-02T21:14:08Z</time>
      </trkpt>
      <trkpt lat="45.76207" lon="5.64927">
        <ele>285</ele>
        <time>2022-03-02T21:14:11Z</time>
      </trkpt>
      <trkpt lat="45.76215" lon="5.64914">
        <ele>285</ele>
        <time>2022-03-02T21:14:14Z</time>
      </trkpt>
      <trkpt lat="45.76267" lon="5.64877">
        <ele>288</ele>
        <time>2022-03-02T21:14:27Z</time>
      </trkpt>
      <trkpt lat="45.76278" lon="5.64889">
        <ele>286</ele>
        <time>2022-03-02T21:14:30Z</time>
      </trkpt>
      <trkpt lat="45.76306" lon="5.64905">
        <ele>286</ele>
        <time>2022-03-02T21:14:37Z</time>
      </trkpt>
      <trkpt lat="45.76346" lon="5.64911">
        <ele>288</ele>
        <time>2022-03-02T21:14:47Z</time>
      </trkpt>
      <trkpt lat="45.76403" lon="5.64904">
        <ele>294</ele>
        <time>2022-03-02T21:15:00Z</time>
      </trkpt>
      <trkpt lat="45.76448" lon="5.6486">
        <ele>294</ele>
        <time>2022-03-02T21:15:13Z</time>
      </trkpt>
      <trkpt lat="45.76502" lon="5.64825">
        <ele>297</ele>
        <time>2022-03-02T21:15:27Z</time>
      </trkpt>
      <trkpt lat="45.76555" lon="5.64801">
        <ele>300</ele>
        <time>2022-03-02T21:15:40Z</time>
      </trkpt>
      <trkpt lat="45.76584" lon="5.64794">
        <ele>301</ele>
        <time>2022-03-02T21:15:47Z</time>
      </trkpt>
      <trkpt lat="45.76607" lon="5.64776">
        <ele>300</ele>
        <time>2022-03-02T21:15:53Z</time>
      </trkpt>
      <trkpt lat="45.76643" lon="5.64753">
        <ele>298</ele>
        <time>2022-03-02T21:16:02Z</time>
      </trkpt>
      <trkpt lat="45.76662" lon="5.64746">
        <ele>298</ele>
        <time>2022-03-02T21:16:06Z</time>
      </trkpt>
      <trkpt lat="45.76709" lon="5.6474">
        <ele>298</ele>
        <time>2022-03-02T21:16:17Z</time>
      </trkpt>
      <trkpt lat="45.76712" lon="5.64718">
        <ele>298</ele>
        <time>2022-03-02T21:16:21Z</time>
      </trkpt>
      <trkpt lat="45.76718" lon="5.64697">
        <ele>297</ele>
        <time>2022-03-02T21:16:25Z</time>
      </trkpt>
      <trkpt lat="45.76733" lon="5.64667">
        <ele>297</ele>
        <time>2022-03-02T21:16:31Z</time>
      </trkpt>
      <trkpt lat="45.76748" lon="5.64641">
        <ele>297</ele>
        <time>2022-03-02T21:16:36Z</time>
      </trkpt>
      <trkpt lat="45.76779" lon="5.64601">
        <ele>301</ele>
        <time>2022-03-02T21:16:46Z</time>
      </trkpt>
      <trkpt lat="45.76818" lon="5.6457">
        <ele>308</ele>
        <time>2022-03-02T21:16:56Z</time>
      </trkpt>
      <trkpt lat="45.76885" lon="5.64526">
        <ele>315</ele>
        <time>2022-03-02T21:17:14Z</time>
      </trkpt>
      <trkpt lat="45.76906" lon="5.64506">
        <ele>315</ele>
        <time>2022-03-02T21:17:20Z</time>
      </trkpt>
      <trkpt lat="45.76916" lon="5.645">
        <ele>315</ele>
        <time>2022-03-02T21:17:22Z</time>
      </trkpt>
      <trkpt lat="45.76982" lon="5.64477">
        <ele>323</ele>
        <time>2022-03-02T21:17:38Z</time>
      </trkpt>
      <trkpt lat="45.7699" lon="5.64469">
        <ele>323</ele>
        <time>2022-03-02T21:17:40Z</time>
      </trkpt>
      <trkpt lat="45.7701" lon="5.64427">
        <ele>320</ele>
        <time>2022-03-02T21:17:49Z</time>
      </trkpt>
      <trkpt lat="45.77022" lon="5.64411">
        <ele>320</ele>
        <time>2022-03-02T21:17:52Z</time>
      </trkpt>
      <trkpt lat="45.77034" lon="5.64403">
        <ele>322</ele>
        <time>2022-03-02T21:17:55Z</time>
      </trkpt>
      <trkpt lat="45.77069" lon="5.64396">
        <ele>325</ele>
        <time>2022-03-02T21:18:04Z</time>
      </trkpt>
      <trkpt lat="45.77113" lon="5.64378">
        <ele>327</ele>
        <time>2022-03-02T21:18:14Z</time>
      </trkpt>
      <trkpt lat="45.77285" lon="5.6426">
        <ele>341</ele>
        <time>2022-03-02T21:18:59Z</time>
      </trkpt>
      <trkpt lat="45.77373" lon="5.64182">
        <ele>349</ele>
        <time>2022-03-02T21:19:23Z</time>
      </trkpt>
      <trkpt lat="45.77406" lon="5.64148">
        <ele>353</ele>
        <time>2022-03-02T21:19:33Z</time>
      </trkpt>
      <trkpt lat="45.77426" lon="5.64136">
        <ele>355</ele>
        <time>2022-03-02T21:19:38Z</time>
      </trkpt>
      <trkpt lat="45.77447" lon="5.64125">
        <ele>357</ele>
        <time>2022-03-02T21:19:43Z</time>
      </trkpt>
      <trkpt lat="45.77464" lon="5.64134">
        <ele>355</ele>
        <time>2022-03-02T21:19:47Z</time>
      </trkpt>
      <trkpt lat="45.77471" lon="5.64141">
        <ele>354</ele>
        <time>2022-03-02T21:19:49Z</time>
      </trkpt>
      <trkpt lat="45.77487" lon="5.64146">
        <ele>353</ele>
        <time>2022-03-02T21:19:53Z</time>
      </trkpt>
      <trkpt lat="45.77505" lon="5.64146">
        <ele>354</ele>
        <time>2022-03-02T21:19:57Z</time>
      </trkpt>
      <trkpt lat="45.7754" lon="5.64125">
        <ele>357</ele>
        <time>2022-03-02T21:20:06Z</time>
      </trkpt>
      <trkpt lat="45.77606" lon="5.64099">
        <ele>358</ele>
        <time>2022-03-02T21:20:22Z</time>
      </trkpt>
      <trkpt lat="45.77638" lon="5.6408">
        <ele>358</ele>
        <time>2022-03-02T21:20:30Z</time>
      </trkpt>
      <trkpt lat="45.77679" lon="5.64042">
        <ele>360</ele>
        <time>2022-03-02T21:20:41Z</time>
      </trkpt>
      <trkpt lat="45.77724" lon="5.63987">
        <ele>362</ele>
        <time>2022-03-02T21:20:55Z</time>
      </trkpt>
      <trkpt lat="45.7773" lon="5.63971">
        <ele>363</ele>
        <time>2022-03-02T21:20:58Z</time>
      </trkpt>
      <trkpt lat="45.77727" lon="5.63931">
        <ele>365</ele>
        <time>2022-03-02T21:21:05Z</time>
      </trkpt>
      <trkpt lat="45.77732" lon="5.63914">
        <ele>365</ele>
        <time>2022-03-02T21:21:08Z</time>
      </trkpt>
      <trkpt lat="45.77751" lon="5.63877">
        <ele>366</ele>
        <time>2022-03-02T21:21:15Z</time>
      </trkpt>
      <trkpt lat="45.77793" lon="5.63824">
        <ele>367</ele>
        <time>2022-03-02T21:21:28Z</time>
      </trkpt>
      <trkpt lat="45.77801" lon="5.6381">
        <ele>367</ele>
        <time>2022-03-02T21:21:31Z</time>
      </trkpt>
      <trkpt lat="45.77819" lon="5.63761">
        <ele>367</ele>
        <time>2022-03-02T21:21:40Z</time>
      </trkpt>
      <trkpt lat="45.7784" lon="5.63728">
        <ele>366</ele>
        <time>2022-03-02T21:21:48Z</time>
      </trkpt>
      <trkpt lat="45.77846" lon="5.63714">
        <ele>366</ele>
        <time>2022-03-02T21:21:50Z</time>
      </trkpt>
      <trkpt lat="45.77853" lon="5.63647">
        <ele>367</ele>
        <time>2022-03-02T21:22:01Z</time>
      </trkpt>
      <trkpt lat="45.77864" lon="5.63593">
        <ele>368</ele>
        <time>2022-03-02T21:22:10Z</time>
      </trkpt>
      <trkpt lat="45.77902" lon="5.63501">
        <ele>367</ele>
        <time>2022-03-02T21:22:28Z</time>
      </trkpt>
      <trkpt lat="45.77897" lon="5.63502">
        <ele>367</ele>
        <time>2022-03-02T21:22:29Z</time>
      </trkpt>
      <trkpt lat="45.77883" lon="5.63516">
        <ele>367</ele>
        <time>2022-03-02T21:22:33Z</time>
      </trkpt>
      <trkpt lat="45.77876" lon="5.63529">
        <ele>367</ele>
        <time>2022-03-02T21:22:36Z</time>
      </trkpt>
      <trkpt lat="45.77871" lon="5.63535">
        <ele>367</ele>
        <time>2022-03-02T21:22:37Z</time>
      </trkpt>
      <trkpt lat="45.77865" lon="5.63537">
        <ele>367</ele>
        <time>2022-03-02T21:22:39Z</time>
      </trkpt>
      <trkpt lat="45.77862" lon="5.63544">
        <ele>367</ele>
        <time>2022-03-02T21:22:40Z</time>
      </trkpt>
      <trkpt lat="45.77864" lon="5.63553">
        <ele>367</ele>
        <time>2022-03-02T21:22:42Z</time>
      </trkpt>
      <trkpt lat="45.77875" lon="5.63548">
        <ele>367</ele>
        <time>2022-03-02T21:22:44Z</time>
      </trkpt>
      <trkpt lat="45.7788" lon="5.63554">
        <ele>367</ele>
        <time>2022-03-02T21:22:46Z</time>
      </trkpt>
      <trkpt lat="45.77863" lon="5.63594">
        <ele>368</ele>
        <time>2022-03-02T21:22:53Z</time>
      </trkpt>
      <trkpt lat="45.77853" lon="5.63647">
        <ele>367</ele>
        <time>2022-03-02T21:23:02Z</time>
      </trkpt>
      <trkpt lat="45.77851" lon="5.63677">
        <ele>367</ele>
        <time>2022-03-02T21:23:07Z</time>
      </trkpt>
      <trkpt lat="45.77845" lon="5.63714">
        <ele>366</ele>
        <time>2022-03-02T21:23:13Z</time>
      </trkpt>
      <trkpt lat="45.7784" lon="5.63728">
        <ele>366</ele>
        <time>2022-03-02T21:23:16Z</time>
      </trkpt>
      <trkpt lat="45.77819" lon="5.63761">
        <ele>367</ele>
        <time>2022-03-02T21:23:23Z</time>
      </trkpt>
      <trkpt lat="45.77808" lon="5.63794">
        <ele>367</ele>
        <time>2022-03-02T21:23:29Z</time>
      </trkpt>
      <trkpt lat="45.77794" lon="5.63824">
        <ele>367</ele>
        <time>2022-03-02T21:23:35Z</time>
      </trkpt>
      <trkpt lat="45.77775" lon="5.63845">
        <ele>367</ele>
        <time>2022-03-02T21:23:41Z</time>
      </trkpt>
      <trkpt lat="45.77751" lon="5.63877">
        <ele>366</ele>
        <time>2022-03-02T21:23:48Z</time>
      </trkpt>
      <trkpt lat="45.77731" lon="5.63914">
        <ele>366</ele>
        <time>2022-03-02T21:23:56Z</time>
      </trkpt>
      <trkpt lat="45.77727" lon="5.63931">
        <ele>365</ele>
        <time>2022-03-02T21:23:59Z</time>
      </trkpt>
      <trkpt lat="45.7773" lon="5.63965">
        <ele>363</ele>
        <time>2022-03-02T21:24:04Z</time>
      </trkpt>
      <trkpt lat="45.77799" lon="5.64021">
        <ele>361</ele>
        <time>2022-03-02T21:24:23Z</time>
      </trkpt>
      <trkpt lat="45.77839" lon="5.64073">
        <ele>363</ele>
        <time>2022-03-02T21:24:36Z</time>
      </trkpt>
      <trkpt lat="45.77849" lon="5.6409">
        <ele>363</ele>
        <time>2022-03-02T21:24:39Z</time>
      </trkpt>
      <trkpt lat="45.77864" lon="5.64098">
        <ele>363</ele>
        <time>2022-03-02T21:24:43Z</time>
      </trkpt>
      <trkpt lat="45.77872" lon="5.64107">
        <ele>363</ele>
        <time>2022-03-02T21:24:45Z</time>
      </trkpt>
      <trkpt lat="45.7788" lon="5.64157">
        <ele>360</ele>
        <time>2022-03-02T21:24:54Z</time>
      </trkpt>
      <trkpt lat="45.77887" lon="5.64167">
        <ele>360</ele>
        <time>2022-03-02T21:24:56Z</time>
      </trkpt>
      <trkpt lat="45.77928" lon="5.64202">
        <ele>356</ele>
        <time>2022-03-02T21:25:07Z</time>
      </trkpt>
      <trkpt lat="45.7795" lon="5.64207">
        <ele>356</ele>
        <time>2022-03-02T21:25:12Z</time>
      </trkpt>
      <trkpt lat="45.77978" lon="5.64208">
        <ele>357</ele>
        <time>2022-03-02T21:25:19Z</time>
      </trkpt>
      <trkpt lat="45.77988" lon="5.64213">
        <ele>357</ele>
        <time>2022-03-02T21:25:21Z</time>
      </trkpt>
      <trkpt lat="45.78012" lon="5.64232">
        <ele>356</ele>
        <time>2022-03-02T21:25:28Z</time>
      </trkpt>
      <trkpt lat="45.78097" lon="5.6414">
        <ele>354</ele>
        <time>2022-03-02T21:25:53Z</time>
      </trkpt>
      <trkpt lat="45.78135" lon="5.64118">
        <ele>353</ele>
        <time>2022-03-02T21:26:02Z</time>
      </trkpt>
      <trkpt lat="45.78159" lon="5.64108">
        <ele>352</ele>
        <time>2022-03-02T21:26:08Z</time>
      </trkpt>
      <trkpt lat="45.78191" lon="5.64105">
        <ele>350</ele>
        <time>2022-03-02T21:26:15Z</time>
      </trkpt>
      <trkpt lat="45.78224" lon="5.64091">
        <ele>348</ele>
        <time>2022-03-02T21:26:24Z</time>
      </trkpt>
      <trkpt lat="45.78244" lon="5.64068">
        <ele>347</ele>
        <time>2022-03-02T21:26:30Z</time>
      </trkpt>
      <trkpt lat="45.78261" lon="5.64034">
        <ele>347</ele>
        <time>2022-03-02T21:26:36Z</time>
      </trkpt>
      <trkpt lat="45.78332" lon="5.64048">
        <ele>344</ele>
        <time>2022-03-02T21:26:53Z</time>
      </trkpt>
      <trkpt lat="45.78359" lon="5.64051">
        <ele>346</ele>
        <time>2022-03-02T21:26:59Z</time>
      </trkpt>
      <trkpt lat="45.78459" lon="5.64056">
        <ele>351</ele>
        <time>2022-03-02T21:27:23Z</time>
      </trkpt>
      <trkpt lat="45.78534" lon="5.64039">
        <ele>353</ele>
        <time>2022-03-02T21:27:40Z</time>
      </trkpt>
      <trkpt lat="45.78561" lon="5.64029">
        <ele>354</ele>
        <time>2022-03-02T21:27:47Z</time>
      </trkpt>
      <trkpt lat="45.78587" lon="5.64018">
        <ele>354</ele>
        <time>2022-03-02T21:27:53Z</time>
      </trkpt>
      <trkpt lat="45.78696" lon="5.63948">
        <ele>353</ele>
        <time>2022-03-02T21:28:21Z</time>
      </trkpt>
      <trkpt lat="45.78708" lon="5.63946">
        <ele>353</ele>
        <time>2022-03-02T21:28:24Z</time>
      </trkpt>
      <trkpt lat="45.78726" lon="5.63947">
        <ele>354</ele>
        <time>2022-03-02T21:28:28Z</time>
      </trkpt>
      <trkpt lat="45.78734" lon="5.63972">
        <ele>355</ele>
        <time>2022-03-02T21:28:33Z</time>
      </trkpt>
      <trkpt lat="45.78734" lon="5.64012">
        <ele>357</ele>
        <time>2022-03-02T21:28:39Z</time>
      </trkpt>
      <trkpt lat="45.78738" lon="5.64024">
        <ele>358</ele>
        <time>2022-03-02T21:28:41Z</time>
      </trkpt>
      <trkpt lat="45.78744" lon="5.64033">
        <ele>359</ele>
        <time>2022-03-02T21:28:43Z</time>
      </trkpt>
      <trkpt lat="45.78746" lon="5.64103">
        <ele>363</ele>
        <time>2022-03-02T21:28:55Z</time>
      </trkpt>
      <trkpt lat="45.78741" lon="5.6413">
        <ele>363</ele>
        <time>2022-03-02T21:28:59Z</time>
      </trkpt>
      <trkpt lat="45.78713" lon="5.64221">
        <ele>358</ele>
        <time>2022-03-02T21:29:16Z</time>
      </trkpt>
      <trkpt lat="45.78708" lon="5.64288">
        <ele>353</ele>
        <time>2022-03-02T21:29:27Z</time>
      </trkpt>
      <trkpt lat="45.78705" lon="5.64302">
        <ele>353</ele>
        <time>2022-03-02T21:29:29Z</time>
      </trkpt>
      <trkpt lat="45.78709" lon="5.64312">
        <ele>352</ele>
        <time>2022-03-02T21:29:31Z</time>
      </trkpt>
      <trkpt lat="45.78724" lon="5.64334">
        <ele>351</ele>
        <time>2022-03-02T21:29:36Z</time>
      </trkpt>
      <trkpt lat="45.78719" lon="5.64356">
        <ele>348</ele>
        <time>2022-03-02T21:29:40Z</time>
      </trkpt>
      <trkpt lat="45.78699" lon="5.64372">
        <ele>346</ele>
        <time>2022-03-02T21:29:45Z</time>
      </trkpt>
      <trkpt lat="45.78698" lon="5.64386">
        <ele>345</ele>
        <time>2022-03-02T21:29:47Z</time>
      </trkpt>
      <trkpt lat="45.78715" lon="5.64426">
        <ele>338</ele>
        <time>2022-03-02T21:29:55Z</time>
      </trkpt>
      <trkpt lat="45.7871" lon="5.64472">
        <ele>333</ele>
        <time>2022-03-02T21:30:02Z</time>
      </trkpt>
      <trkpt lat="45.78709" lon="5.64535">
        <ele>329</ele>
        <time>2022-03-02T21:30:13Z</time>
      </trkpt>
      <trkpt lat="45.78711" lon="5.64553">
        <ele>328</ele>
        <time>2022-03-02T21:30:16Z</time>
      </trkpt>
      <trkpt lat="45.7873" lon="5.64612">
        <ele>322</ele>
        <time>2022-03-02T21:30:26Z</time>
      </trkpt>
      <trkpt lat="45.78635" lon="5.64633">
        <ele>331</ele>
        <time>2022-03-02T21:30:49Z</time>
      </trkpt>
      <trkpt lat="45.78564" lon="5.64629">
        <ele>338</ele>
        <time>2022-03-02T21:31:05Z</time>
      </trkpt>
      <trkpt lat="45.78551" lon="5.64625">
        <ele>339</ele>
        <time>2022-03-02T21:31:08Z</time>
      </trkpt>
      <trkpt lat="45.78498" lon="5.64619">
        <ele>339</ele>
        <time>2022-03-02T21:31:21Z</time>
      </trkpt>
      <trkpt lat="45.78489" lon="5.64623">
        <ele>339</ele>
        <time>2022-03-02T21:31:23Z</time>
      </trkpt>
      <trkpt lat="45.78464" lon="5.64647">
        <ele>337</ele>
        <time>2022-03-02T21:31:30Z</time>
      </trkpt>
      <trkpt lat="45.78449" lon="5.64653">
        <ele>337</ele>
        <time>2022-03-02T21:31:34Z</time>
      </trkpt>
      <trkpt lat="45.78412" lon="5.6466">
        <ele>337</ele>
        <time>2022-03-02T21:31:42Z</time>
      </trkpt>
      <trkpt lat="45.78373" lon="5.64661">
        <ele>334</ele>
        <time>2022-03-02T21:31:52Z</time>
      </trkpt>
      <trkpt lat="45.782" lon="5.64641">
        <ele>318</ele>
        <time>2022-03-02T21:32:32Z</time>
      </trkpt>
      <trkpt lat="45.7813" lon="5.6464">
        <ele>316</ele>
        <time>2022-03-02T21:32:48Z</time>
      </trkpt>
      <trkpt lat="45.78054" lon="5.64667">
        <ele>308</ele>
        <time>2022-03-02T21:33:07Z</time>
      </trkpt>
      <trkpt lat="45.77977" lon="5.64722">
        <ele>302</ele>
        <time>2022-03-02T21:33:27Z</time>
      </trkpt>
      <trkpt lat="45.7794" lon="5.64753">
        <ele>292</ele>
        <time>2022-03-02T21:33:37Z</time>
      </trkpt>
      <trkpt lat="45.77879" lon="5.6483">
        <ele>279</ele>
        <time>2022-03-02T21:33:56Z</time>
      </trkpt>
      <trkpt lat="45.77861" lon="5.64846">
        <ele>277</ele>
        <time>2022-03-02T21:34:01Z</time>
      </trkpt>
      <trkpt lat="45.77774" lon="5.64887">
        <ele>274</ele>
        <time>2022-03-02T21:34:22Z</time>
      </trkpt>
      <trkpt lat="45.7774" lon="5.64914">
        <ele>275</ele>
        <time>2022-03-02T21:34:31Z</time>
      </trkpt>
      <trkpt lat="45.77729" lon="5.64927">
        <ele>276</ele>
        <time>2022-03-02T21:34:35Z</time>
      </trkpt>
      <trkpt lat="45.77718" lon="5.64947">
        <ele>277</ele>
        <time>2022-03-02T21:34:39Z</time>
      </trkpt>
      <trkpt lat="45.77715" lon="5.6497">
        <ele>279</ele>
        <time>2022-03-02T21:34:42Z</time>
      </trkpt>
      <trkpt lat="45.77716" lon="5.64988">
        <ele>281</ele>
        <time>2022-03-02T21:34:45Z</time>
      </trkpt>
      <trkpt lat="45.77723" lon="5.65021">
        <ele>285</ele>
        <time>2022-03-02T21:34:51Z</time>
      </trkpt>
      <trkpt lat="45.7774" lon="5.65049">
        <ele>290</ele>
        <time>2022-03-02T21:34:57Z</time>
      </trkpt>
      <trkpt lat="45.77755" lon="5.65066">
        <ele>293</ele>
        <time>2022-03-02T21:35:02Z</time>
      </trkpt>
      <trkpt lat="45.77765" lon="5.65084">
        <ele>295</ele>
        <time>2022-03-02T21:35:05Z</time>
      </trkpt>
      <trkpt lat="45.77766" lon="5.65103">
        <ele>296</ele>
        <time>2022-03-02T21:35:08Z</time>
      </trkpt>
      <trkpt lat="45.77755" lon="5.6513">
        <ele>297</ele>
        <time>2022-03-02T21:35:13Z</time>
      </trkpt>
      <trkpt lat="45.77715" lon="5.65192">
        <ele>295</ele>
        <time>2022-03-02T21:35:27Z</time>
      </trkpt>
      <trkpt lat="45.77696" lon="5.65231">
        <ele>292</ele>
        <time>2022-03-02T21:35:35Z</time>
      </trkpt>
      <trkpt lat="45.77685" lon="5.65261">
        <ele>290</ele>
        <time>2022-03-02T21:35:41Z</time>
      </trkpt>
      <trkpt lat="45.77677" lon="5.6529">
        <ele>287</ele>
        <time>2022-03-02T21:35:46Z</time>
      </trkpt>
      <trkpt lat="45.7766" lon="5.65426">
        <ele>280</ele>
        <time>2022-03-02T21:36:08Z</time>
      </trkpt>
      <trkpt lat="45.7764" lon="5.65428">
        <ele>279</ele>
        <time>2022-03-02T21:36:13Z</time>
      </trkpt>
      <trkpt lat="45.77623" lon="5.65433">
        <ele>277</ele>
        <time>2022-03-02T21:36:17Z</time>
      </trkpt>
      <trkpt lat="45.7761" lon="5.6544">
        <ele>276</ele>
        <time>2022-03-02T21:36:20Z</time>
      </trkpt>
      <trkpt lat="45.77595" lon="5.65457">
        <ele>275</ele>
        <time>2022-03-02T21:36:25Z</time>
      </trkpt>
      <trkpt lat="45.77572" lon="5.65438">
        <ele>275</ele>
        <time>2022-03-02T21:36:31Z</time>
      </trkpt>
      <trkpt lat="45.7756" lon="5.65433">
        <ele>276</ele>
        <time>2022-03-02T21:36:34Z</time>
      </trkpt>
      <trkpt lat="45.77533" lon="5.6543">
        <ele>276</ele>
        <time>2022-03-02T21:36:40Z</time>
      </trkpt>
      <trkpt lat="45.77494" lon="5.65432">
        <ele>276</ele>
        <time>2022-03-02T21:36:49Z</time>
      </trkpt>
      <trkpt lat="45.7743" lon="5.65465">
        <ele>277</ele>
        <time>2022-03-02T21:37:05Z</time>
      </trkpt>
      <trkpt lat="45.77407" lon="5.65468">
        <ele>278</ele>
        <time>2022-03-02T21:37:10Z</time>
      </trkpt>
      <trkpt lat="45.77406" lon="5.65456">
        <ele>279</ele>
        <time>2022-03-02T21:37:12Z</time>
      </trkpt>
      <trkpt lat="45.77393" lon="5.65406">
        <ele>282</ele>
        <time>2022-03-02T21:37:21Z</time>
      </trkpt>
      <trkpt lat="45.77369" lon="5.65349">
        <ele>285</ele>
        <time>2022-03-02T21:37:32Z</time>
      </trkpt>
      <trkpt lat="45.77362" lon="5.65318">
        <ele>286</ele>
        <time>2022-03-02T21:37:37Z</time>
      </trkpt>
      <trkpt lat="45.77396" lon="5.65205">
        <ele>288</ele>
        <time>2022-03-02T21:37:57Z</time>
      </trkpt>
      <trkpt lat="45.77395" lon="5.65175">
        <ele>288</ele>
        <time>2022-03-02T21:38:02Z</time>
      </trkpt>
      <trkpt lat="45.77402" lon="5.65136">
        <ele>284</ele>
        <time>2022-03-02T21:38:09Z</time>
      </trkpt>
      <trkpt lat="45.77425" lon="5.65093">
        <ele>279</ele>
        <time>2022-03-02T21:38:18Z</time>
      </trkpt>
      <trkpt lat="45.77428" lon="5.65078">
        <ele>277</ele>
        <time>2022-03-02T21:38:20Z</time>
      </trkpt>
      <trkpt lat="45.77422" lon="5.65055">
        <ele>273</ele>
        <time>2022-03-02T21:38:24Z</time>
      </trkpt>
      <trkpt lat="45.77412" lon="5.65037">
        <ele>269</ele>
        <time>2022-03-02T21:38:28Z</time>
      </trkpt>
      <trkpt lat="45.77396" lon="5.65024">
        <ele>266</ele>
        <time>2022-03-02T21:38:32Z</time>
      </trkpt>
      <trkpt lat="45.77325" lon="5.65012">
        <ele>263</ele>
        <time>2022-03-02T21:38:49Z</time>
      </trkpt>
      <trkpt lat="45.77289" lon="5.64995">
        <ele>259</ele>
        <time>2022-03-02T21:38:58Z</time>
      </trkpt>
      <trkpt lat="45.77285" lon="5.64978">
        <ele>259</ele>
        <time>2022-03-02T21:39:01Z</time>
      </trkpt>
      <trkpt lat="45.77237" lon="5.65">
        <ele>258</ele>
        <time>2022-03-02T21:39:12Z</time>
      </trkpt>
      <trkpt lat="45.77208" lon="5.65007">
        <ele>258</ele>
        <time>2022-03-02T21:39:19Z</time>
      </trkpt>
      <trkpt lat="45.77167" lon="5.65024">
        <ele>259</ele>
        <time>2022-03-02T21:39:29Z</time>
      </trkpt>
      <trkpt lat="45.77062" lon="5.65079">
        <ele>256</ele>
        <time>2022-03-02T21:39:55Z</time>
      </trkpt>
      <trkpt lat="45.76997" lon="5.65117">
        <ele>259</ele>
        <time>2022-03-02T21:40:12Z</time>
      </trkpt>
      <trkpt lat="45.76752" lon="5.65228">
        <ele>253</ele>
        <time>2022-03-02T21:41:12Z</time>
      </trkpt>
      <trkpt lat="45.76691" lon="5.65259">
        <ele>251</ele>
        <time>2022-03-02T21:41:27Z</time>
      </trkpt>
      <trkpt lat="45.76633" lon="5.65282">
        <ele>250</ele>
        <time>2022-03-02T21:41:41Z</time>
      </trkpt>
      <trkpt lat="45.76591" lon="5.65307">
        <ele>246</ele>
        <time>2022-03-02T21:41:51Z</time>
      </trkpt>
      <trkpt lat="45.76477" lon="5.65359">
        <ele>247</ele>
        <time>2022-03-02T21:42:19Z</time>
      </trkpt>
      <trkpt lat="45.7642" lon="5.65371">
        <ele>249</ele>
        <time>2022-03-02T21:42:33Z</time>
      </trkpt>
      <trkpt lat="45.76384" lon="5.65386">
        <ele>247</ele>
        <time>2022-03-02T21:42:42Z</time>
      </trkpt>
      <trkpt lat="45.76319" lon="5.65404">
        <ele>241</ele>
        <time>2022-03-02T21:42:57Z</time>
      </trkpt>
      <trkpt lat="45.76279" lon="5.65395">
        <ele>240</ele>
        <time>2022-03-02T21:43:07Z</time>
      </trkpt>
      <trkpt lat="45.76271" lon="5.65402">
        <ele>239</ele>
        <time>2022-03-02T21:43:09Z</time>
      </trkpt>
      <trkpt lat="45.76125" lon="5.65457">
        <ele>233</ele>
        <time>2022-03-02T21:43:44Z</time>
      </trkpt>
      <trkpt lat="45.76113" lon="5.65464">
        <ele>232</ele>
        <time>2022-03-02T21:43:47Z</time>
      </trkpt>
      <trkpt lat="45.76093" lon="5.65487">
        <ele>231</ele>
        <time>2022-03-02T21:43:53Z</time>
      </trkpt>
      <trkpt lat="45.76082" lon="5.65539">
        <ele>230</ele>
        <time>2022-03-02T21:44:02Z</time>
      </trkpt>
      <trkpt lat="45.76048" lon="5.65748">
        <ele>228</ele>
        <time>2022-03-02T21:44:37Z</time>
      </trkpt>
      <trkpt lat="45.7601" lon="5.65857">
        <ele>228</ele>
        <time>2022-03-02T21:44:57Z</time>
      </trkpt>
      <trkpt lat="45.75996" lon="5.65901">
        <ele>228</ele>
        <time>2022-03-02T21:45:05Z</time>
      </trkpt>
      <trkpt lat="45.7599" lon="5.6593">
        <ele>228</ele>
        <time>2022-03-02T21:45:09Z</time>
      </trkpt>
      <trkpt lat="45.75988" lon="5.65986">
        <ele>230</ele>
        <time>2022-03-02T21:45:19Z</time>
      </trkpt>
      <trkpt lat="45.75994" lon="5.66153">
        <ele>233</ele>
        <time>2022-03-02T21:45:46Z</time>
      </trkpt>
      <trkpt lat="45.76038" lon="5.6623">
        <ele>234</ele>
        <time>2022-03-02T21:46:02Z</time>
      </trkpt>
      <trkpt lat="45.76082" lon="5.66292">
        <ele>237</ele>
        <time>2022-03-02T21:46:16Z</time>
      </trkpt>
      <trkpt lat="45.76097" lon="5.66308">
        <ele>238</ele>
        <time>2022-03-02T21:46:21Z</time>
      </trkpt>
      <trkpt lat="45.7614" lon="5.66328">
        <ele>242</ele>
        <time>2022-03-02T21:46:31Z</time>
      </trkpt>
      <trkpt lat="45.7615" lon="5.66336">
        <ele>243</ele>
        <time>2022-03-02T21:46:34Z</time>
      </trkpt>
      <trkpt lat="45.76164" lon="5.66393">
        <ele>247</ele>
        <time>2022-03-02T21:46:44Z</time>
      </trkpt>
      <trkpt lat="45.7618" lon="5.66436">
        <ele>251</ele>
        <time>2022-03-02T21:46:52Z</time>
      </trkpt>
      <trkpt lat="45.76197" lon="5.66461">
        <ele>253</ele>
        <time>2022-03-02T21:46:58Z</time>
      </trkpt>
      <trkpt lat="45.76218" lon="5.66477">
        <ele>255</ele>
        <time>2022-03-02T21:47:03Z</time>
      </trkpt>
      <trkpt lat="45.76239" lon="5.66488">
        <ele>256</ele>
        <time>2022-03-02T21:47:08Z</time>
      </trkpt>
      <trkpt lat="45.76249" lon="5.66488">
        <ele>257</ele>
        <time>2022-03-02T21:47:11Z</time>
      </trkpt>
      <trkpt lat="45.76261" lon="5.66481">
        <ele>257</ele>
        <time>2022-03-02T21:47:14Z</time>
      </trkpt>
      <trkpt lat="45.7629" lon="5.66457">
        <ele>259</ele>
        <time>2022-03-02T21:47:21Z</time>
      </trkpt>
      <trkpt lat="45.76314" lon="5.6645">
        <ele>261</ele>
        <time>2022-03-02T21:47:27Z</time>
      </trkpt>
      <trkpt lat="45.76329" lon="5.66441">
        <ele>262</ele>
        <time>2022-03-02T21:47:31Z</time>
      </trkpt>
      <trkpt lat="45.76356" lon="5.66414">
        <ele>263</ele>
        <time>2022-03-02T21:47:39Z</time>
      </trkpt>
      <trkpt lat="45.76368" lon="5.66407">
        <ele>262</ele>
        <time>2022-03-02T21:47:42Z</time>
      </trkpt>
      <trkpt lat="45.7643" lon="5.66381">
        <ele>263</ele>
        <time>2022-03-02T21:47:57Z</time>
      </trkpt>
      <trkpt lat="45.76471" lon="5.66375">
        <ele>264</ele>
        <time>2022-03-02T21:48:06Z</time>
      </trkpt>
      <trkpt lat="45.76481" lon="5.66376">
        <ele>265</ele>
        <time>2022-03-02T21:48:09Z</time>
      </trkpt>
      <trkpt lat="45.76511" lon="5.66407">
        <ele>269</ele>
        <time>2022-03-02T21:48:17Z</time>
      </trkpt>
      <trkpt lat="45.7652" lon="5.66472">
        <ele>270</ele>
        <time>2022-03-02T21:48:28Z</time>
      </trkpt>
      <trkpt lat="45.7652" lon="5.66508">
        <ele>269</ele>
        <time>2022-03-02T21:48:34Z</time>
      </trkpt>
      <trkpt lat="45.76511" lon="5.66551">
        <ele>270</ele>
        <time>2022-03-02T21:48:41Z</time>
      </trkpt>
      <trkpt lat="45.76501" lon="5.66583">
        <ele>271</ele>
        <time>2022-03-02T21:48:47Z</time>
      </trkpt>
      <trkpt lat="45.76484" lon="5.66623">
        <ele>272</ele>
        <time>2022-03-02T21:48:55Z</time>
      </trkpt>
      <trkpt lat="45.76467" lon="5.66645">
        <ele>272</ele>
        <time>2022-03-02T21:49:00Z</time>
      </trkpt>
      <trkpt lat="45.76402" lon="5.66702">
        <ele>273</ele>
        <time>2022-03-02T21:49:18Z</time>
      </trkpt>
      <trkpt lat="45.76366" lon="5.66753">
        <ele>276</ele>
        <time>2022-03-02T21:49:30Z</time>
      </trkpt>
      <trkpt lat="45.76337" lon="5.66802">
        <ele>278</ele>
        <time>2022-03-02T21:49:40Z</time>
      </trkpt>
      <trkpt lat="45.76328" lon="5.66808">
        <ele>278</ele>
        <time>2022-03-02T21:49:42Z</time>
      </trkpt>
      <trkpt lat="45.76189" lon="5.66851">
        <ele>279</ele>
        <time>2022-03-02T21:50:16Z</time>
      </trkpt>
      <trkpt lat="45.76167" lon="5.66864">
        <ele>279</ele>
        <time>2022-03-02T21:50:21Z</time>
      </trkpt>
      <trkpt lat="45.76122" lon="5.66905">
        <ele>278</ele>
        <time>2022-03-02T21:50:34Z</time>
      </trkpt>
      <trkpt lat="45.76058" lon="5.66984">
        <ele>277</ele>
        <time>2022-03-02T21:50:53Z</time>
      </trkpt>
      <trkpt lat="45.76046" lon="5.66996">
        <ele>276</ele>
        <time>2022-03-02T21:50:57Z</time>
      </trkpt>
      <trkpt lat="45.75984" lon="5.67032">
        <ele>274</ele>
        <time>2022-03-02T21:51:12Z</time>
      </trkpt>
      <trkpt lat="45.75956" lon="5.67065">
        <ele>274</ele>
        <time>2022-03-02T21:51:21Z</time>
      </trkpt>
      <trkpt lat="45.75859" lon="5.67216">
        <ele>281</ele>
        <time>2022-03-02T21:51:54Z</time>
      </trkpt>
      <trkpt lat="45.75832" lon="5.67295">
        <ele>282</ele>
        <time>2022-03-02T21:52:09Z</time>
      </trkpt>
      <trkpt lat="45.75822" lon="5.67305">
        <ele>281</ele>
        <time>2022-03-02T21:52:12Z</time>
      </trkpt>
      <trkpt lat="45.75812" lon="5.67307">
        <ele>281</ele>
        <time>2022-03-02T21:52:14Z</time>
      </trkpt>
      <trkpt lat="45.75753" lon="5.67303">
        <ele>278</ele>
        <time>2022-03-02T21:52:28Z</time>
      </trkpt>
      <trkpt lat="45.75741" lon="5.67294">
        <ele>277</ele>
        <time>2022-03-02T21:52:31Z</time>
      </trkpt>
      <trkpt lat="45.75727" lon="5.67319">
        <ele>279</ele>
        <time>2022-03-02T21:52:36Z</time>
      </trkpt>
      <trkpt lat="45.75635" lon="5.67456">
        <ele>283</ele>
        <time>2022-03-02T21:53:07Z</time>
      </trkpt>
      <trkpt lat="45.756" lon="5.67525">
        <ele>284</ele>
        <time>2022-03-02T21:53:21Z</time>
      </trkpt>
      <trkpt lat="45.75538" lon="5.67716">
        <ele>283</ele>
        <time>2022-03-02T21:53:55Z</time>
      </trkpt>
      <trkpt lat="45.75534" lon="5.67762">
        <ele>284</ele>
        <time>2022-03-02T21:54:03Z</time>
      </trkpt>
      <trkpt lat="45.75537" lon="5.67858">
        <ele>285</ele>
        <time>2022-03-02T21:54:18Z</time>
      </trkpt>
      <trkpt lat="45.75527" lon="5.67922">
        <ele>287</ele>
        <time>2022-03-02T21:54:29Z</time>
      </trkpt>
      <trkpt lat="45.75493" lon="5.68019">
        <ele>291</ele>
        <time>2022-03-02T21:54:47Z</time>
      </trkpt>
      <trkpt lat="45.75475" lon="5.68045">
        <ele>291</ele>
        <time>2022-03-02T21:54:53Z</time>
      </trkpt>
      <trkpt lat="45.7547" lon="5.68056">
        <ele>291</ele>
        <time>2022-03-02T21:54:55Z</time>
      </trkpt>
      <trkpt lat="45.75472" lon="5.68068">
        <ele>291</ele>
        <time>2022-03-02T21:54:57Z</time>
      </trkpt>
      <trkpt lat="45.75484" lon="5.68075">
        <ele>291</ele>
        <time>2022-03-02T21:55:00Z</time>
      </trkpt>
      <trkpt lat="45.755" lon="5.6809">
        <ele>292</ele>
        <time>2022-03-02T21:55:04Z</time>
      </trkpt>
      <trkpt lat="45.75519" lon="5.68101">
        <ele>291</ele>
        <time>2022-03-02T21:55:09Z</time>
      </trkpt>
      <trkpt lat="45.75571" lon="5.68146">
        <ele>289</ele>
        <time>2022-03-02T21:55:23Z</time>
      </trkpt>
      <trkpt lat="45.75602" lon="5.68166">
        <ele>289</ele>
        <time>2022-03-02T21:55:31Z</time>
      </trkpt>
      <trkpt lat="45.75573" lon="5.6834">
        <ele>287</ele>
        <time>2022-03-02T21:56:01Z</time>
      </trkpt>
      <trkpt lat="45.75573" lon="5.68353">
        <ele>287</ele>
        <time>2022-03-02T21:56:03Z</time>
      </trkpt>
      <trkpt lat="45.75569" lon="5.68362">
        <ele>288</ele>
        <time>2022-03-02T21:56:04Z</time>
      </trkpt>
      <trkpt lat="45.7557" lon="5.68374">
        <ele>288</ele>
        <time>2022-03-02T21:56:06Z</time>
      </trkpt>
      <trkpt lat="45.75576" lon="5.68379">
        <ele>287</ele>
        <time>2022-03-02T21:56:08Z</time>
      </trkpt>
      <trkpt lat="45.75621" lon="5.68499">
        <ele>284</ele>
        <time>2022-03-02T21:56:30Z</time>
      </trkpt>
      <trkpt lat="45.75658" lon="5.68623">
        <ele>284</ele>
        <time>2022-03-02T21:56:52Z</time>
      </trkpt>
      <trkpt lat="45.75778" lon="5.68623">
        <ele>281</ele>
        <time>2022-03-02T21:57:20Z</time>
      </trkpt>
      <trkpt lat="45.75824" lon="5.68626">
        <ele>281</ele>
        <time>2022-03-02T21:57:31Z</time>
      </trkpt>
      <trkpt lat="45.75819" lon="5.68693">
        <ele>280</ele>
        <time>2022-03-02T21:57:42Z</time>
      </trkpt>
      <trkpt lat="45.75812" lon="5.68752">
        <ele>279</ele>
        <time>2022-03-02T21:57:52Z</time>
      </trkpt>
      <trkpt lat="45.75806" lon="5.6878">
        <ele>279</ele>
        <time>2022-03-02T21:57:56Z</time>
      </trkpt>
      <trkpt lat="45.75797" lon="5.68808">
        <ele>279</ele>
        <time>2022-03-02T21:58:01Z</time>
      </trkpt>
      <trkpt lat="45.75773" lon="5.68862">
        <ele>280</ele>
        <time>2022-03-02T21:58:12Z</time>
      </trkpt>
      <trkpt lat="45.75779" lon="5.68874">
        <ele>280</ele>
        <time>2022-03-02T21:58:14Z</time>
      </trkpt>
      <trkpt lat="45.7578" lon="5.68882">
        <ele>280</ele>
        <time>2022-03-02T21:58:16Z</time>
      </trkpt>
      <trkpt lat="45.75777" lon="5.68902">
        <ele>280</ele>
        <time>2022-03-02T21:58:19Z</time>
      </trkpt>
      <trkpt lat="45.75799" lon="5.68908">
        <ele>280</ele>
        <time>2022-03-02T21:58:24Z</time>
      </trkpt>
      <trkpt lat="45.75813" lon="5.68908">
        <ele>280</ele>
        <time>2022-03-02T21:58:27Z</time>
      </trkpt>
      <trkpt lat="45.75802" lon="5.68932">
        <ele>281</ele>
        <time>2022-03-02T21:58:32Z</time>
      </trkpt>
    </trkseg>
  </trk>
</gpx>